createdAt,value
2023-04-30T00:00:16.412Z,102434.97
2023-04-30T00:02:18.006Z,102441.06
2023-04-30T00:04:19.567Z,102441.94
2023-04-30T00:06:21.351Z,102446.28
2023-04-30T00:08:22.979Z,102441.03
2023-04-30T00:10:24.472Z,102451.50
2023-04-30T00:12:26.021Z,102456.72
2023-04-30T00:14:27.545Z,102447.94
2023-04-30T00:16:29.068Z,102453.13
2023-04-30T00:18:30.753Z,102450.50
2023-04-30T00:20:32.496Z,102455.69
2023-04-30T00:22:34.107Z,102456.47
2023-04-30T00:24:35.607Z,102459.91
2023-04-30T00:26:37.063Z,102452.88
2023-04-30T00:28:38.555Z,102456.31
2023-04-30T00:30:40.055Z,102457.13
2023-04-30T00:32:41.553Z,102457.09
2023-04-30T00:34:43.211Z,102464.91
2023-04-30T00:36:44.700Z,102459.66
2023-04-30T00:38:46.237Z,102465.75
2023-04-30T00:40:47.752Z,102465.69
2023-04-30T00:42:49.508Z,102468.28
2023-04-30T00:44:51.000Z,102462.97
2023-04-30T00:46:52.472Z,102467.28
2023-04-30T00:48:54.134Z,102466.34
2023-04-30T00:50:56.223Z,102468.00
2023-04-30T00:52:59.549Z,102470.59
2023-04-30T00:55:01.308Z,102464.44
2023-04-30T00:57:05.584Z,102469.63
2023-04-30T00:59:07.188Z,102463.47
2023-04-30T01:01:08.890Z,102473.03
2023-04-30T01:03:10.699Z,102474.75
2023-04-30T01:05:12.236Z,102478.19
2023-04-30T01:07:13.846Z,102477.22
2023-04-30T01:09:16.240Z,102480.59
2023-04-30T01:11:26.015Z,102477.94
2023-04-30T01:13:30.910Z,102471.78
2023-04-30T01:15:42.703Z,102478.72
2023-04-30T01:17:56.482Z,102476.91
2023-04-30T01:19:59.708Z,102476.81
2023-04-30T01:22:04.399Z,102475.91
2023-04-30T01:24:35.277Z,102475.88
2023-04-30T01:27:06.959Z,102476.63
2023-04-30T01:29:09.477Z,102474.81
2023-04-30T01:31:14.975Z,102480.00
2023-04-30T01:33:16.561Z,102479.09
2023-04-30T01:35:18.060Z,102476.44
2023-04-30T01:37:31.818Z,102475.56
2023-04-30T01:39:48.824Z,102478.97
2023-04-30T01:42:02.520Z,102486.78
2023-04-30T01:44:22.713Z,102476.19
2023-04-30T01:46:31.080Z,102474.41
2023-04-30T01:48:56.032Z,102480.44
2023-04-30T01:51:23.727Z,102479.53
2023-04-30T01:53:33.195Z,102483.84
2023-04-30T01:55:51.990Z,102481.19
2023-04-30T01:57:59.585Z,102477.66
2023-04-30T02:00:01.355Z,102481.06
2023-04-30T02:02:03.513Z,102485.38
2023-04-30T02:04:05.483Z,102479.22
2023-04-30T02:06:07.254Z,102496.59
2023-04-30T02:08:08.817Z,102493.91
2023-04-30T02:10:12.268Z,102493.91
2023-04-30T02:12:13.723Z,102500.84
2023-04-30T02:14:15.299Z,102497.31
2023-04-30T02:16:16.808Z,102499.88
2023-04-30T02:18:18.468Z,102498.94
2023-04-30T02:20:20.159Z,102497.13
2023-04-30T02:22:21.620Z,102505.78
2023-04-30T02:24:23.158Z,102505.75
2023-04-30T02:26:24.755Z,102498.72
2023-04-30T02:28:26.350Z,102501.28
2023-04-30T02:30:27.910Z,102502.97
2023-04-30T02:32:29.617Z,102509.06
2023-04-30T02:34:31.125Z,102510.75
2023-04-30T02:36:36.322Z,102509.81
2023-04-30T02:38:37.837Z,102504.53
2023-04-30T02:40:42.097Z,102515.81
2023-04-30T02:42:43.603Z,102513.13
2023-04-30T02:44:45.100Z,102518.31
2023-04-30T02:46:46.612Z,102513.09
2023-04-30T02:48:48.074Z,102524.34
2023-04-30T02:50:49.547Z,102511.28
2023-04-30T02:52:50.995Z,102517.34
2023-04-30T02:54:52.487Z,102519.94
2023-04-30T02:56:54.081Z,102522.50
2023-04-30T02:58:55.582Z,102521.59
2023-04-30T03:00:57.456Z,102516.25
2023-04-30T03:02:59.116Z,102518.78
2023-04-30T03:05:00.721Z,102515.25
2023-04-30T03:07:03.597Z,102514.31
2023-04-30T03:09:05.154Z,102514.28
2023-04-30T03:11:06.667Z,102522.00
2023-04-30T03:13:08.230Z,102515.91
2023-04-30T03:15:10.067Z,102516.72
2023-04-30T03:17:11.790Z,102523.69
2023-04-30T03:19:13.344Z,102521.03
2023-04-30T03:21:15.309Z,102518.38
2023-04-30T03:23:16.833Z,102520.09
2023-04-30T03:25:18.309Z,102517.50
2023-04-30T03:27:19.862Z,102509.59
2023-04-30T03:29:21.334Z,102519.09
2023-04-30T03:31:22.925Z,102516.44
2023-04-30T03:33:24.625Z,102516.38
2023-04-30T03:35:26.140Z,102523.28
2023-04-30T03:37:27.601Z,102515.41
2023-04-30T03:39:29.062Z,102523.16
2023-04-30T03:41:30.664Z,102520.50
2023-04-30T03:43:32.165Z,102516.97
2023-04-30T03:45:33.656Z,102514.31
2023-04-30T03:47:37.124Z,102517.78
2023-04-30T03:49:39.017Z,102518.53
2023-04-30T03:51:41.878Z,102512.44
2023-04-30T03:53:43.545Z,102520.22
2023-04-30T03:55:45.393Z,102514.91
2023-04-30T03:57:46.947Z,102515.72
2023-04-30T03:59:48.915Z,102515.66
2023-04-30T04:01:51.062Z,102517.41
2023-04-30T04:03:52.666Z,102520.84
2023-04-30T04:05:54.249Z,102518.19
2023-04-30T04:07:55.836Z,102520.72
2023-04-30T04:09:57.366Z,102521.56
2023-04-30T04:11:58.909Z,102526.78
2023-04-30T04:14:01.177Z,102518.91
2023-04-30T04:16:03.014Z,102528.47
2023-04-30T04:18:06.975Z,102525.00
2023-04-30T04:20:09.560Z,102528.50
2023-04-30T04:22:12.084Z,102525.00
2023-04-30T04:24:13.549Z,102529.44
2023-04-30T04:26:15.086Z,102532.03
2023-04-30T04:28:19.427Z,102538.28
2023-04-30T04:30:20.954Z,102534.03
2023-04-30T04:32:22.964Z,102535.78
2023-04-30T04:34:24.578Z,102541.09
2023-04-30T04:36:30.448Z,102541.16
2023-04-30T04:38:31.933Z,102539.63
2023-04-30T04:40:35.444Z,102543.38
2023-04-30T04:42:38.342Z,102548.03
2023-04-30T04:44:41.294Z,102543.97
2023-04-30T04:46:44.512Z,102544.25
2023-04-30T04:48:46.815Z,102546.34
2023-04-30T04:50:48.332Z,102556.19
2023-04-30T04:52:49.786Z,102547.72
2023-04-30T04:54:51.570Z,102553.25
2023-04-30T04:56:53.101Z,102560.47
2023-04-30T04:58:54.568Z,102562.41
2023-04-30T05:00:57.389Z,102572.25
2023-04-30T05:02:58.979Z,102582.06
2023-04-30T05:05:01.746Z,102588.41
2023-04-30T05:07:03.716Z,102578.06
2023-04-30T05:09:08.895Z,102574.63
2023-04-30T05:11:10.645Z,102589.53
2023-04-30T05:13:12.130Z,102582.59
2023-04-30T05:15:13.620Z,102580.94
2023-04-30T05:17:15.095Z,102594.13
2023-04-30T05:19:16.616Z,102587.25
2023-04-30T05:21:18.057Z,102583.81
2023-04-30T05:23:19.650Z,102588.28
2023-04-30T05:25:21.181Z,102591.06
2023-04-30T05:27:22.687Z,102589.50
2023-04-30T05:29:24.149Z,102596.63
2023-04-30T05:31:25.807Z,102593.25
2023-04-30T05:33:27.437Z,102599.50
2023-04-30T05:35:30.416Z,102602.25
2023-04-30T05:37:31.999Z,102608.47
2023-04-30T05:39:33.560Z,102603.28
2023-04-30T05:41:35.068Z,102598.13
2023-04-30T05:43:36.536Z,102598.28
2023-04-30T05:45:38.068Z,102603.69
2023-04-30T05:47:39.592Z,102598.66
2023-04-30T05:49:41.169Z,102596.16
2023-04-30T05:51:42.724Z,102602.47
2023-04-30T05:53:44.242Z,102604.34
2023-04-30T05:55:45.769Z,102601.84
2023-04-30T05:57:47.327Z,102607.19
2023-04-30T05:59:48.827Z,102610.84
2023-04-30T06:01:50.411Z,102603.94
2023-04-30T06:03:52.411Z,102614.53
2023-04-30T06:05:54.435Z,102610.31
2023-04-30T06:07:55.985Z,102611.31
2023-04-30T06:09:57.519Z,102606.19
2023-04-30T06:11:59.199Z,102611.56
2023-04-30T06:14:01.178Z,102610.75
2023-04-30T06:16:02.797Z,102608.28
2023-04-30T06:18:04.409Z,102603.97
2023-04-30T06:20:07.213Z,102610.19
2023-04-30T06:22:08.759Z,102613.75
2023-04-30T06:24:10.478Z,102618.22
2023-04-30T06:26:14.999Z,102627.09
2023-04-30T06:28:16.644Z,102618.44
2023-04-30T06:30:18.127Z,102619.44
2023-04-30T06:32:19.701Z,102614.28
2023-04-30T06:34:21.313Z,102617.84
2023-04-30T06:36:22.864Z,102623.19
2023-04-30T06:38:24.417Z,102621.53
2023-04-30T06:40:26.154Z,102620.72
2023-04-30T06:42:27.637Z,102618.16
2023-04-30T06:44:29.127Z,102611.22
2023-04-30T06:46:31.004Z,102613.03
2023-04-30T06:48:32.866Z,102622.72
2023-04-30T06:50:34.486Z,102614.88
2023-04-30T06:52:35.966Z,102618.41
2023-04-30T06:54:37.535Z,102615.84
2023-04-30T06:56:39.009Z,102627.34
2023-04-30T06:58:40.516Z,102623.91
2023-04-30T07:00:42.816Z,102618.75
2023-04-30T07:02:44.386Z,102620.56
2023-04-30T07:04:45.950Z,102624.16
2023-04-30T07:06:47.502Z,102625.97
2023-04-30T07:08:48.944Z,102619.03
2023-04-30T07:10:50.754Z,102619.09
2023-04-30T07:12:52.219Z,102622.69
2023-04-30T07:14:53.813Z,102625.41
2023-04-30T07:16:55.339Z,102621.09
2023-04-30T07:18:56.890Z,102617.66
2023-04-30T07:20:58.353Z,102616.91
2023-04-30T07:22:59.825Z,102625.66
2023-04-30T07:25:01.461Z,102622.06
2023-04-30T07:27:03.972Z,102621.25
2023-04-30T07:29:05.512Z,102624.78
2023-04-30T07:31:07.839Z,102620.38
2023-04-30T07:33:09.597Z,102623.97
2023-04-30T07:35:11.371Z,102619.63
2023-04-30T07:37:13.463Z,102619.69
2023-04-30T07:39:14.996Z,102624.16
2023-04-30T07:41:16.482Z,102626.81
2023-04-30T07:43:17.962Z,102622.41
2023-04-30T07:45:19.427Z,102629.47
2023-04-30T07:47:20.986Z,102634.72
2023-04-30T07:49:22.746Z,102629.44
2023-04-30T07:51:24.236Z,102625.06
2023-04-30T07:53:26.003Z,102627.72
2023-04-30T07:55:27.505Z,102620.72
2023-04-30T07:57:28.981Z,102617.28
2023-04-30T07:59:30.498Z,102623.47
2023-04-30T08:01:32.573Z,102623.50
2023-04-30T08:03:34.240Z,102627.91
2023-04-30T08:05:35.775Z,102627.94
2023-04-30T08:07:37.335Z,102627.97
2023-04-30T08:09:38.790Z,102621.81
2023-04-30T08:11:40.303Z,102616.53
2023-04-30T08:13:42.709Z,102620.03
2023-04-30T08:15:44.210Z,102620.91
2023-04-30T08:17:45.764Z,102627.06
2023-04-30T08:19:47.414Z,102623.56
2023-04-30T08:21:48.993Z,102635.88
2023-04-30T08:23:50.648Z,102628.81
2023-04-30T08:25:52.409Z,102627.06
2023-04-30T08:27:53.889Z,102627.09
2023-04-30T08:29:55.714Z,102627.09
2023-04-30T08:32:02.572Z,102622.69
2023-04-30T08:34:04.135Z,102626.22
2023-04-30T08:36:05.824Z,102625.31
2023-04-30T08:38:07.490Z,102617.41
2023-04-30T08:40:12.287Z,102623.56
2023-04-30T08:42:15.465Z,102621.81
2023-04-30T08:44:18.675Z,102627.09
2023-04-30T08:46:21.910Z,102622.66
2023-04-30T08:48:24.918Z,102630.59
2023-04-30T08:50:27.802Z,102627.97
2023-04-30T08:52:31.090Z,102619.16
2023-04-30T08:54:33.446Z,102625.31
2023-04-30T08:56:35.175Z,102623.56
2023-04-30T08:58:37.672Z,102625.31
2023-04-30T09:00:40.503Z,102618.25
2023-04-30T09:02:43.073Z,102623.56
2023-04-30T09:04:45.024Z,102625.31
2023-04-30T09:06:46.815Z,102626.19
2023-04-30T09:08:49.837Z,102630.56
2023-04-30T09:10:51.593Z,102627.06
2023-04-30T09:13:09.357Z,102620.88
2023-04-30T09:15:12.383Z,102618.22
2023-04-30T09:17:21.846Z,102623.50
2023-04-30T09:19:27.782Z,102623.50
2023-04-30T09:21:33.653Z,102625.28
2023-04-30T09:23:35.329Z,102619.09
2023-04-30T09:25:41.703Z,102625.25
2023-04-30T09:27:43.799Z,102620.84
2023-04-30T09:29:46.306Z,102626.13
2023-04-30T09:31:47.972Z,102618.19
2023-04-30T09:33:49.551Z,102623.47
2023-04-30T09:35:51.069Z,102616.44
2023-04-30T09:37:52.614Z,102622.56
2023-04-30T09:39:55.356Z,102619.91
2023-04-30T09:42:10.693Z,102609.31
2023-04-30T09:44:28.539Z,102612.84
2023-04-30T09:46:37.257Z,102611.13
2023-04-30T09:48:41.735Z,102601.38
2023-04-30T09:50:44.936Z,102598.69
2023-04-30T09:52:53.810Z,102604.84
2023-04-30T09:54:55.408Z,102605.72
2023-04-30T09:56:59.315Z,102603.91
2023-04-30T09:59:04.496Z,102609.13
2023-04-30T10:01:07.730Z,102600.34
2023-04-30T10:03:11.228Z,102599.53
2023-04-30T10:05:12.879Z,102596.00
2023-04-30T10:07:22.224Z,102591.56
2023-04-30T10:09:29.712Z,102591.53
2023-04-30T10:11:34.104Z,102592.31
2023-04-30T10:13:43.134Z,102591.38
2023-04-30T10:15:49.992Z,102589.50
2023-04-30T10:18:07.135Z,102585.00
2023-04-30T10:20:10.602Z,102588.47
2023-04-30T10:22:12.343Z,102583.97
2023-04-30T10:24:14.917Z,102579.38
2023-04-30T10:26:18.108Z,102584.53
2023-04-30T10:28:20.156Z,102585.31
2023-04-30T10:30:22.896Z,102579.94
2023-04-30T10:32:32.133Z,102580.75
2023-04-30T10:34:55.812Z,102578.78
2023-04-30T10:37:25.823Z,102573.56
2023-04-30T10:39:28.824Z,102582.38
2023-04-30T10:41:31.251Z,102569.81
2023-04-30T10:43:35.500Z,102570.47
2023-04-30T10:45:38.950Z,102565.81
2023-04-30T10:47:43.319Z,102562.66
2023-04-30T10:49:49.419Z,102560.34
2023-04-30T10:51:55.088Z,102560.63
2023-04-30T10:53:57.065Z,102560.88
2023-04-30T10:56:07.277Z,102558.66
2023-04-30T10:58:27.644Z,102561.53
2023-04-30T11:00:29.856Z,102558.31
2023-04-30T11:02:41.370Z,102557.91
2023-04-30T11:05:07.821Z,102558.81
2023-04-30T11:07:10.651Z,102563.06
2023-04-30T11:09:12.173Z,102553.28
2023-04-30T11:11:23.884Z,102549.88
2023-04-30T11:13:26.757Z,102551.28
2023-04-30T11:15:34.567Z,102550.00
2023-04-30T11:17:38.159Z,102548.66
2023-04-30T11:19:47.624Z,102551.13
2023-04-30T11:22:15.755Z,102548.81
2023-04-30T11:24:19.820Z,102551.00
2023-04-30T11:26:21.337Z,102547.38
2023-04-30T11:28:27.683Z,102549.69
2023-04-30T11:30:29.770Z,102554.22
2023-04-30T11:32:36.145Z,102543.50
2023-04-30T11:34:37.960Z,102545.56
2023-04-30T11:36:41.532Z,102536.19
2023-04-30T11:38:43.310Z,102534.13
2023-04-30T11:40:45.140Z,102538.56
2023-04-30T11:42:48.372Z,102539.97
2023-04-30T11:44:49.847Z,102541.28
2023-04-30T11:46:51.481Z,102530.16
2023-04-30T11:48:53.045Z,102527.25
2023-04-30T11:50:54.530Z,102528.31
2023-04-30T11:52:57.586Z,102523.38
2023-04-30T11:55:00.369Z,102527.50
2023-04-30T11:57:04.327Z,102519.38
2023-04-30T11:59:13.188Z,102525.66
2023-04-30T12:01:15.558Z,102517.03
2023-04-30T12:03:17.444Z,102520.56
2023-04-30T12:05:21.739Z,102510.38
2023-04-30T12:07:23.373Z,102508.84
2023-04-30T12:09:25.962Z,102515.63
2023-04-30T12:11:29.297Z,102506.72
2023-04-30T12:13:34.045Z,102504.44
2023-04-30T12:15:35.611Z,102502.34
2023-04-30T12:17:37.178Z,102501.09
2023-04-30T12:19:38.748Z,102500.97
2023-04-30T12:21:42.186Z,102493.19
2023-04-30T12:23:45.145Z,102492.47
2023-04-30T12:25:47.697Z,102501.41
2023-04-30T12:27:52.729Z,102487.19
2023-04-30T12:29:56.575Z,102489.22
2023-04-30T12:31:59.420Z,102492.84
2023-04-30T12:34:08.698Z,102487.69
2023-04-30T12:36:10.943Z,102486.94
2023-04-30T12:38:17.272Z,102488.97
2023-04-30T12:40:20.746Z,102494.69
2023-04-30T12:42:22.267Z,102487.66
2023-04-30T12:44:25.420Z,102489.03
2023-04-30T12:46:27.998Z,102481.13
2023-04-30T12:48:29.587Z,102480.81
2023-04-30T12:50:31.117Z,102467.91
2023-04-30T12:52:32.785Z,102468.03
2023-04-30T12:54:35.907Z,102471.13
2023-04-30T12:56:37.688Z,102463.66
2023-04-30T12:58:39.949Z,102474.63
2023-04-30T13:00:49.799Z,102472.47
2023-04-30T13:02:51.303Z,102463.28
2023-04-30T13:04:53.853Z,102466.53
2023-04-30T13:06:55.302Z,102465.78
2023-04-30T13:08:58.868Z,102468.66
2023-04-30T13:11:00.667Z,102456.44
2023-04-30T13:13:02.320Z,102455.75
2023-04-30T13:15:04.093Z,102445.56
2023-04-30T13:17:07.356Z,102441.34
2023-04-30T13:19:08.896Z,102442.97
2023-04-30T13:21:10.759Z,102437.72
2023-04-30T13:23:12.446Z,102431.78
2023-04-30T13:25:13.943Z,102432.53
2023-04-30T13:27:15.451Z,102436.41
2023-04-30T13:29:17.040Z,102423.59
2023-04-30T13:31:18.619Z,102425.50
2023-04-30T13:33:20.904Z,102420.53
2023-04-30T13:35:22.768Z,102422.88
2023-04-30T13:37:24.452Z,102419.72
2023-04-30T13:39:25.999Z,102415.69
2023-04-30T13:41:27.549Z,102411.97
2023-04-30T13:43:29.307Z,102409.53
2023-04-30T13:45:30.866Z,102410.28
2023-04-30T13:47:32.462Z,102409.47
2023-04-30T13:49:36.592Z,102410.66
2023-04-30T13:51:38.455Z,102404.22
2023-04-30T13:53:40.464Z,102405.78
2023-04-30T13:55:42.093Z,102398.81
2023-04-30T13:57:43.760Z,102400.69
2023-04-30T13:59:45.341Z,102391.53
2023-04-30T14:01:47.069Z,102390.03
2023-04-30T14:03:48.665Z,102384.31
2023-04-30T14:05:50.466Z,102387.81
2023-04-30T14:07:51.934Z,102390.53
2023-04-30T14:09:53.700Z,102385.13
2023-04-30T14:11:58.963Z,102379.09
2023-04-30T14:14:00.461Z,102384.09
2023-04-30T14:16:02.110Z,102377.41
2023-04-30T14:18:03.872Z,102383.06
2023-04-30T14:20:06.111Z,102382.00
2023-04-30T14:22:07.579Z,102376.00
2023-04-30T14:24:09.356Z,102372.53
2023-04-30T14:26:10.859Z,102365.94
2023-04-30T14:28:12.319Z,102373.59
2023-04-30T14:30:13.832Z,102369.16
2023-04-30T14:32:15.441Z,102363.19
2023-04-30T14:34:17.346Z,102366.56
2023-04-30T14:36:18.986Z,102352.03
2023-04-30T14:38:20.745Z,102356.28
2023-04-30T14:40:22.245Z,102352.41
2023-04-30T14:42:23.779Z,102353.59
2023-04-30T14:44:26.456Z,102348.19
2023-04-30T14:46:28.150Z,102346.63
2023-04-30T14:48:29.652Z,102339.41
2023-04-30T14:50:31.465Z,102334.25
2023-04-30T14:52:32.921Z,102346.50
2023-04-30T14:54:34.494Z,102333.47
2023-04-30T14:56:36.012Z,102330.03
2023-04-30T14:58:38.118Z,102332.03
2023-04-30T15:00:39.574Z,102334.56
2023-04-30T15:02:41.312Z,102324.69
2023-04-30T15:04:46.063Z,102325.16
2023-04-30T15:06:47.896Z,102324.34
2023-04-30T15:08:49.785Z,102327.22
2023-04-30T15:10:51.255Z,102315.75
2023-04-30T15:12:53.821Z,102319.53
2023-04-30T15:14:55.368Z,102316.34
2023-04-30T15:16:56.991Z,102319.75
2023-04-30T15:18:59.370Z,102316.13
2023-04-30T15:21:02.040Z,102312.88
2023-04-30T15:23:03.799Z,102311.50
2023-04-30T15:25:05.797Z,102315.56
2023-04-30T15:27:07.288Z,102308.78
2023-04-30T15:29:10.532Z,102309.09
2023-04-30T15:31:12.182Z,102306.16
2023-04-30T15:33:13.807Z,102297.31
2023-04-30T15:35:15.450Z,102300.88
2023-04-30T15:37:16.923Z,102300.25
2023-04-30T15:39:19.130Z,102308.44
2023-04-30T15:41:21.638Z,102296.72
2023-04-30T15:43:23.209Z,102296.72
2023-04-30T15:45:25.360Z,102291.63
2023-04-30T15:47:26.915Z,102297.84
2023-04-30T15:49:28.673Z,102291.44
2023-04-30T15:51:30.268Z,102292.41
2023-04-30T15:53:31.733Z,102289.47
2023-04-30T15:55:33.356Z,102295.38
2023-04-30T15:57:34.827Z,102289.16
2023-04-30T15:59:36.284Z,102294.34
2023-04-30T16:01:37.901Z,102295.94
2023-04-30T16:03:39.906Z,102292.44
2023-04-30T16:05:41.749Z,102290.38
2023-04-30T16:07:44.667Z,102285.78
2023-04-30T16:09:48.999Z,102284.78
2023-04-30T16:11:50.894Z,102279.75
2023-04-30T16:13:52.908Z,102279.31
2023-04-30T16:15:54.369Z,102278.13
2023-04-30T16:17:56.758Z,102273.03
2023-04-30T16:19:59.988Z,102271.47
2023-04-30T16:22:01.789Z,102278.84
2023-04-30T16:24:03.294Z,102272.13
2023-04-30T16:26:04.880Z,102279.97
2023-04-30T16:28:06.435Z,102277.44
2023-04-30T16:30:09.285Z,102278.25
2023-04-30T16:32:11.696Z,102270.22
2023-04-30T16:34:13.709Z,102266.47
2023-04-30T16:36:15.245Z,102267.47
2023-04-30T16:38:16.727Z,102263.31
2023-04-30T16:40:18.344Z,102275.13
2023-04-30T16:42:19.801Z,102268.97
2023-04-30T16:44:22.540Z,102268.25
2023-04-30T16:46:24.081Z,102257.81
2023-04-30T16:48:25.577Z,102256.38
2023-04-30T16:50:27.314Z,102256.25
2023-04-30T16:52:29.660Z,102262.16
2023-04-30T16:54:31.177Z,102263.72
2023-04-30T16:56:32.625Z,102257.22
2023-04-30T16:58:34.707Z,102250.34
2023-04-30T17:00:36.696Z,102256.50
2023-04-30T17:02:39.882Z,102249.88
2023-04-30T17:04:41.461Z,102247.81
2023-04-30T17:06:43.097Z,102249.63
2023-04-30T17:08:44.697Z,102245.88
2023-04-30T17:10:47.627Z,102237.84
2023-04-30T17:12:49.178Z,102238.72
2023-04-30T17:14:52.096Z,102230.56
2023-04-30T17:16:53.618Z,102239.22
2023-04-30T17:18:55.095Z,102243.38
2023-04-30T17:20:56.800Z,102234.94
2023-04-30T17:22:58.347Z,102237.84
2023-04-30T17:25:00.636Z,102235.06
2023-04-30T17:27:05.584Z,102241.91
2023-04-30T17:29:07.365Z,102233.25
2023-04-30T17:31:09.389Z,102239.22
2023-04-30T17:33:11.022Z,102240.09
2023-04-30T17:35:12.536Z,102244.13
2023-04-30T17:37:14.035Z,102243.03
2023-04-30T17:39:16.273Z,102240.41
2023-04-30T17:41:18.611Z,102239.72
2023-04-30T17:43:20.291Z,102229.63
2023-04-30T17:45:21.831Z,102237.53
2023-04-30T17:47:23.539Z,102238.41
2023-04-30T17:49:25.804Z,102235.72
2023-04-30T17:51:29.207Z,102234.44
2023-04-30T17:53:30.694Z,102235.81
2023-04-30T17:55:32.756Z,102230.84
2023-04-30T17:57:34.841Z,102234.00
2023-04-30T17:59:38.795Z,102235.53
2023-04-30T18:01:40.562Z,102230.72
2023-04-30T18:03:42.820Z,102231.22
2023-04-30T18:05:45.179Z,102233.41
2023-04-30T18:07:47.609Z,102232.78
2023-04-30T18:09:49.174Z,102225.03
2023-04-30T18:11:51.629Z,102223.59
2023-04-30T18:13:53.150Z,102225.78
2023-04-30T18:15:54.722Z,102224.34
2023-04-30T18:17:56.376Z,102222.91
2023-04-30T18:19:58.198Z,102218.75
2023-04-30T18:22:00.519Z,102213.72
2023-04-30T18:24:02.703Z,102216.72
2023-04-30T18:26:04.775Z,102218.84
2023-04-30T18:28:08.608Z,102219.19
2023-04-30T18:30:11.553Z,102218.56
2023-04-30T18:32:13.150Z,102220.63
2023-04-30T18:34:14.953Z,102225.31
2023-04-30T18:36:16.876Z,102221.06
2023-04-30T18:38:18.644Z,102223.13
2023-04-30T18:40:20.489Z,102223.41
2023-04-30T18:42:22.447Z,102218.28
2023-04-30T18:44:33.943Z,102215.81
2023-04-30T18:46:36.164Z,102215.13
2023-04-30T18:48:38.295Z,102210.00
2023-04-30T18:50:42.567Z,102204.03
2023-04-30T18:52:45.186Z,102205.19
2023-04-30T18:54:46.926Z,102217.81
2023-04-30T18:56:48.411Z,102210.03
2023-04-30T18:58:49.997Z,102212.94
2023-04-30T19:00:51.536Z,102210.47
2023-04-30T19:02:53.181Z,102203.59
2023-04-30T19:04:54.761Z,102210.84
2023-04-30T19:06:56.246Z,102211.88
2023-04-30T19:08:59.647Z,102212.97
2023-04-30T19:11:01.157Z,102211.38
2023-04-30T19:13:02.683Z,102213.31
2023-04-30T19:15:04.648Z,102217.88
2023-04-30T19:17:06.591Z,102222.41
2023-04-30T19:19:08.234Z,102214.63
2023-04-30T19:21:09.745Z,102225.31
2023-04-30T19:23:11.208Z,102221.91
2023-04-30T19:25:12.752Z,102221.13
2023-04-30T19:27:14.234Z,102218.63
2023-04-30T19:29:15.695Z,102225.78
2023-04-30T19:31:17.268Z,102226.78
2023-04-30T19:33:18.852Z,102237.50
2023-04-30T19:35:20.387Z,102226.13
2023-04-30T19:37:21.979Z,102232.44
2023-04-30T19:39:29.191Z,102231.66
2023-04-30T19:41:30.664Z,102226.44
2023-04-30T19:43:32.151Z,102223.88
2023-04-30T19:45:33.590Z,102218.69
2023-04-30T19:47:36.178Z,102219.69
2023-04-30T19:49:37.676Z,102227.72
2023-04-30T19:51:39.595Z,102226.03
2023-04-30T19:53:41.190Z,102226.09
2023-04-30T19:55:43.357Z,102223.53
2023-04-30T19:57:44.921Z,102228.03
2023-04-30T19:59:47.292Z,102218.38
2023-04-30T20:01:48.918Z,102217.59
2023-04-30T20:03:50.625Z,102216.75
2023-04-30T20:05:52.484Z,102217.69
2023-04-30T20:07:53.928Z,102223.00
2023-04-30T20:09:55.682Z,102221.31
2023-04-30T20:11:57.747Z,102222.25
2023-04-30T20:13:59.292Z,102220.53
2023-04-30T20:16:01.352Z,102223.16
2023-04-30T20:18:03.606Z,102218.78
2023-04-30T20:20:05.730Z,102223.16
2023-04-30T20:22:12.990Z,102222.28
2023-04-30T20:24:14.572Z,102219.66
2023-04-30T20:26:16.025Z,102213.53
2023-04-30T20:28:18.202Z,102206.56
2023-04-30T20:30:20.871Z,102211.00
2023-04-30T20:32:22.480Z,102217.19
2023-04-30T20:34:24.118Z,102221.63
2023-04-30T20:36:25.544Z,102222.50
2023-04-30T20:38:27.028Z,102218.13
2023-04-30T20:40:28.474Z,102222.56
2023-04-30T20:42:30.554Z,102219.97
2023-04-30T20:44:33.545Z,102222.66
2023-04-30T20:46:36.219Z,102218.28
2023-04-30T20:48:37.712Z,102220.09
2023-04-30T20:50:39.282Z,102216.63
2023-04-30T20:52:41.564Z,102216.63
2023-04-30T20:54:43.517Z,102213.13
2023-04-30T20:56:46.822Z,102217.56
2023-04-30T20:58:48.625Z,102204.34
2023-04-30T21:00:50.199Z,102208.78
2023-04-30T21:02:53.903Z,102197.38
2023-04-30T21:04:55.527Z,102198.31
2023-04-30T21:06:57.194Z,102195.69
2023-04-30T21:08:58.757Z,102196.59
2023-04-30T21:11:00.214Z,102205.44
2023-04-30T21:13:05.800Z,102198.41
2023-04-30T21:15:09.009Z,102196.69
2023-04-30T21:17:10.627Z,102205.53
2023-04-30T21:19:12.550Z,102195.84
2023-04-30T21:21:14.473Z,102202.91
2023-04-30T21:23:15.933Z,102196.78
2023-04-30T21:25:17.475Z,102202.94
2023-04-30T21:27:18.949Z,102192.38
2023-04-30T21:29:20.394Z,102189.75
2023-04-30T21:31:23.730Z,102195.91
2023-04-30T21:33:25.352Z,102190.66
2023-04-30T21:35:29.993Z,102190.66
2023-04-30T21:37:31.466Z,102186.28
2023-04-30T21:39:32.954Z,102185.41
2023-04-30T21:41:34.475Z,102183.66
2023-04-30T21:43:37.004Z,102184.56
2023-04-30T21:45:38.562Z,102183.69
2023-04-30T21:47:40.156Z,102181.03
2023-04-30T21:49:43.134Z,102186.34
2023-04-30T21:51:44.630Z,102184.59
2023-04-30T21:53:46.453Z,102179.34
2023-04-30T21:55:49.411Z,102179.34
2023-04-30T21:57:51.222Z,102174.09
2023-04-30T21:59:52.812Z,102174.09
2023-04-30T22:01:54.432Z,102169.72
2023-04-30T22:03:57.143Z,102169.72
2023-04-30T22:05:59.043Z,102170.63
2023-04-30T22:08:00.723Z,102165.38
2023-04-30T22:10:05.551Z,102161.84
2023-04-30T22:12:08.393Z,102160.09
2023-04-30T22:14:09.863Z,102156.56
2023-04-30T22:16:11.577Z,102147.81
2023-04-30T22:18:13.348Z,102150.44
2023-04-30T22:20:14.981Z,102153.97
2023-04-30T22:22:16.725Z,102148.72
2023-04-30T22:24:18.271Z,102146.97
2023-04-30T22:26:19.831Z,102141.69
2023-04-30T22:28:22.442Z,102151.38
2023-04-30T22:30:24.232Z,102145.22
2023-04-30T22:32:26.308Z,102143.47
2023-04-30T22:34:27.828Z,102141.72
2023-04-30T22:36:29.318Z,102147.00
2023-04-30T22:38:31.434Z,102138.22
2023-04-30T22:40:34.280Z,102134.66
2023-04-30T22:42:35.916Z,102132.91
2023-04-30T22:44:37.836Z,102126.78
2023-04-30T22:46:40.683Z,102128.53
2023-04-30T22:48:42.900Z,102130.31
2023-04-30T22:50:45.260Z,102132.06
2023-04-30T22:52:47.651Z,102133.81
2023-04-30T22:54:49.291Z,102126.81
2023-04-30T22:56:50.788Z,102122.41
2023-04-30T22:58:52.298Z,102120.66
2023-04-30T23:00:53.811Z,102123.31
2023-04-30T23:02:55.645Z,102118.03
2023-04-30T23:04:57.209Z,102117.16
2023-04-30T23:06:58.759Z,102114.53
2023-04-30T23:09:00.242Z,102117.16
2023-04-30T23:11:03.027Z,102123.28
2023-04-30T23:13:04.494Z,102114.50
2023-04-30T23:15:06.323Z,102108.34
2023-04-30T23:17:07.858Z,102106.59
2023-04-30T23:19:09.783Z,102105.72
2023-04-30T23:21:11.246Z,102100.47